You are not logged in, Click here to log in
ICAO: EDDF Country: 德國黑森邦法蘭克福
Latitude: 50.0264 Longitude: 8.54313
Total Arrivals: 33 Total Departures: 34
Latest Arrival: FS99 (EDDP-EDDF)ALAN. LIU Latest Departure: LH1306 (EDDF-OLBA)Meng Sheng. Chan
Scenery:
METAR : EDDF 180650Z 19007KT 9999 FEW009 SCT016 20/18 Q1008 NOSIG

法蘭克福機場FRA